createdAt,value
2022-10-05T00:00:44.453Z,19.90
2022-10-05T00:03:11.815Z,19.90
2022-10-05T00:05:38.800Z,19.90
2022-10-05T00:08:13.209Z,19.90
2022-10-05T00:10:41.427Z,20.00
2022-10-05T00:13:15.404Z,19.90
2022-10-05T00:15:42.697Z,19.90
2022-10-05T00:18:14.380Z,19.90
2022-10-05T00:20:41.464Z,19.90
2022-10-05T00:23:13.693Z,19.90
2022-10-05T00:25:40.400Z,19.90
2022-10-05T00:28:15.342Z,19.90
2022-10-05T00:30:42.116Z,19.90
2022-10-05T00:33:08.742Z,19.90
2022-10-05T00:35:36.175Z,19.90
2022-10-05T00:38:02.927Z,19.90
2022-10-05T00:40:36.784Z,19.90
2022-10-05T00:43:03.424Z,19.90
2022-10-05T00:45:35.838Z,19.90
2022-10-05T00:48:19.386Z,19.90
2022-10-05T00:50:46.979Z,19.90
2022-10-05T00:53:29.359Z,19.90
2022-10-05T00:56:16.380Z,19.90
2022-10-05T00:58:43.056Z,19.90
2022-10-05T01:01:14.214Z,19.90
2022-10-05T01:03:49.150Z,19.90
2022-10-05T01:06:36.093Z,19.90
2022-10-05T01:09:09.384Z,19.90
2022-10-05T01:11:55.078Z,19.90
2022-10-05T01:14:30.667Z,19.90
2022-10-05T01:17:03.570Z,19.90
2022-10-05T01:19:33.148Z,19.90
2022-10-05T01:22:04.307Z,19.90
2022-10-05T01:24:44.523Z,19.90
2022-10-05T01:27:11.340Z,19.90
2022-10-05T01:29:49.095Z,19.90
2022-10-05T01:32:31.003Z,19.90
2022-10-05T01:35:05.468Z,19.90
2022-10-05T01:37:50.691Z,19.90
2022-10-05T01:40:27.488Z,19.90
2022-10-05T01:43:00.263Z,19.90
2022-10-05T01:45:46.629Z,19.90
2022-10-05T01:48:13.316Z,19.90
2022-10-05T01:50:52.114Z,19.90
2022-10-05T01:53:36.407Z,19.90
2022-10-05T01:56:06.256Z,19.90
2022-10-05T01:58:52.876Z,19.90
2022-10-05T02:01:38.198Z,19.90
2022-10-05T02:04:56.915Z,19.80
2022-10-05T02:07:20.824Z,19.80
2022-10-05T02:09:51.668Z,19.80
2022-10-05T02:12:19.715Z,19.80
2022-10-05T02:14:50.094Z,19.80
2022-10-05T02:17:18.375Z,19.90
2022-10-05T02:19:47.693Z,19.80
2022-10-05T02:22:21.942Z,19.80
2022-10-05T02:24:54.330Z,19.80
2022-10-05T02:27:40.892Z,19.80
2022-10-05T02:30:10.479Z,19.80
2022-10-05T02:32:47.241Z,19.80
2022-10-05T02:35:15.592Z,19.80
2022-10-05T02:38:01.764Z,19.80
2022-10-05T02:40:53.663Z,19.80
2022-10-05T02:43:20.652Z,19.80
2022-10-05T02:45:53.910Z,19.80
2022-10-05T02:48:29.036Z,19.80
2022-10-05T02:51:01.831Z,19.80
2022-10-05T02:53:55.474Z,19.80
2022-10-05T02:56:26.016Z,19.80
2022-10-05T02:59:00.784Z,19.80
2022-10-05T03:01:28.874Z,19.80
2022-10-05T03:04:04.949Z,19.80
2022-10-05T03:06:50.449Z,19.80
2022-10-05T03:09:19.388Z,19.80
2022-10-05T03:11:46.108Z,19.80
2022-10-05T03:14:21.726Z,19.80
2022-10-05T03:17:10.429Z,19.80
2022-10-05T03:19:38.168Z,19.80
2022-10-05T03:22:22.829Z,19.80
2022-10-05T03:24:59.080Z,19.80
2022-10-05T03:27:30.822Z,19.80
2022-10-05T03:30:03.453Z,19.80
2022-10-05T03:32:39.019Z,19.80
2022-10-05T03:35:14.738Z,19.70
2022-10-05T03:37:51.256Z,19.70
2022-10-05T03:40:25.069Z,19.80
2022-10-05T03:43:03.812Z,19.70
2022-10-05T03:45:50.085Z,19.70
2022-10-05T03:48:23.426Z,19.80
2022-10-05T03:50:51.092Z,19.70
2022-10-05T03:53:23.379Z,19.70
2022-10-05T03:56:04.018Z,19.70
2022-10-05T03:58:34.457Z,19.70
2022-10-05T04:01:04.516Z,19.80
2022-10-05T04:03:31.364Z,19.70
2022-10-05T04:06:02.300Z,19.70
2022-10-05T04:08:43.040Z,19.70
2022-10-05T04:11:14.457Z,19.70
2022-10-05T04:13:54.887Z,19.70
2022-10-05T04:16:28.135Z,19.70
2022-10-05T04:19:15.455Z,19.70
2022-10-05T04:21:45.448Z,19.70
2022-10-05T04:24:21.092Z,19.70
2022-10-05T04:26:48.040Z,19.80
2022-10-05T04:29:24.123Z,19.70
2022-10-05T04:32:00.052Z,19.70
2022-10-05T04:34:47.301Z,19.80
2022-10-05T04:37:26.501Z,19.70
2022-10-05T04:40:03.731Z,19.80
2022-10-05T04:42:33.909Z,19.80
2022-10-05T04:45:24.260Z,19.70
2022-10-05T04:48:03.298Z,19.70
2022-10-05T04:50:49.012Z,19.80
2022-10-05T04:53:31.880Z,19.80
2022-10-05T04:56:08.001Z,19.70
2022-10-05T04:58:50.787Z,19.70
2022-10-05T05:01:29.707Z,19.70
2022-10-05T05:04:16.698Z,19.70
2022-10-05T05:06:50.680Z,19.70
2022-10-05T05:09:20.540Z,19.70
2022-10-05T05:12:06.043Z,19.70
2022-10-05T05:14:55.240Z,19.70
2022-10-05T05:17:36.093Z,19.70
2022-10-05T05:20:16.314Z,19.70
2022-10-05T05:22:55.374Z,19.80
2022-10-05T05:25:30.120Z,19.80
2022-10-05T05:27:57.229Z,19.80
2022-10-05T05:30:38.219Z,19.80
2022-10-05T05:33:23.353Z,19.80
2022-10-05T05:35:57.808Z,19.80
2022-10-05T05:38:30.823Z,19.80
2022-10-05T05:41:12.664Z,19.80
2022-10-05T05:44:03.816Z,19.70
2022-10-05T05:47:02.197Z,19.70
2022-10-05T05:49:31.643Z,19.70
2022-10-05T05:52:01.440Z,19.70
2022-10-05T05:54:43.798Z,19.70
2022-10-05T05:57:11.027Z,19.70
2022-10-05T05:59:51.641Z,19.70
2022-10-05T06:02:21.246Z,19.70
2022-10-05T06:04:54.638Z,19.70
2022-10-05T06:07:30.166Z,19.70
2022-10-05T06:09:59.826Z,19.70
2022-10-05T06:12:34.475Z,19.70
2022-10-05T06:15:16.736Z,19.70
2022-10-05T06:17:48.748Z,19.70
2022-10-05T06:20:27.533Z,19.70
2022-10-05T06:22:57.588Z,19.70
2022-10-05T06:25:36.568Z,19.70
2022-10-05T06:28:03.563Z,19.70
2022-10-05T06:30:45.005Z,19.70
2022-10-05T06:33:11.865Z,19.70
2022-10-05T06:35:38.622Z,19.70
2022-10-05T06:38:08.346Z,19.70
2022-10-05T06:40:41.391Z,19.70
2022-10-05T06:43:15.661Z,19.70
2022-10-05T06:46:17.182Z,19.70
2022-10-05T06:49:03.379Z,19.70
2022-10-05T06:52:38.184Z,19.70
2022-10-05T06:55:31.436Z,19.70
2022-10-05T06:58:10.863Z,19.70
2022-10-05T07:00:57.902Z,19.60
2022-10-05T07:03:33.856Z,19.60
2022-10-05T07:06:05.536Z,19.70
2022-10-05T07:08:32.322Z,19.60
2022-10-05T07:11:08.765Z,19.70
2022-10-05T07:14:02.757Z,19.60
2022-10-05T07:16:29.494Z,19.60
2022-10-05T07:19:02.561Z,19.60
2022-10-05T07:21:29.685Z,19.70
2022-10-05T07:23:59.260Z,19.70
2022-10-05T07:26:28.853Z,19.60
2022-10-05T07:29:08.109Z,19.60
2022-10-05T07:31:51.099Z,19.70
2022-10-05T07:34:17.833Z,19.70
2022-10-05T07:37:09.349Z,19.70
2022-10-05T07:39:59.569Z,19.70
2022-10-05T07:42:27.309Z,19.70
2022-10-05T07:44:58.334Z,19.70
2022-10-05T07:47:33.502Z,19.70
2022-10-05T07:50:08.382Z,19.70
2022-10-05T07:52:35.183Z,19.70
2022-10-05T07:55:05.119Z,19.70
2022-10-05T07:57:41.206Z,19.70
2022-10-05T08:00:14.496Z,19.70
2022-10-05T08:02:49.551Z,19.70
2022-10-05T08:05:22.344Z,19.70
2022-10-05T08:07:52.228Z,19.70
2022-10-05T08:10:27.775Z,19.80
2022-10-05T08:13:02.955Z,19.90
2022-10-05T08:15:35.361Z,19.90
2022-10-05T08:18:10.940Z,19.90
2022-10-05T08:20:37.671Z,19.90
2022-10-05T08:23:25.669Z,19.90
2022-10-05T08:26:10.815Z,19.90
2022-10-05T08:29:00.866Z,20.00
2022-10-05T08:31:38.112Z,20.20
2022-10-05T08:34:11.009Z,20.40
2022-10-05T08:36:53.560Z,20.40
2022-10-05T08:39:21.363Z,20.50
2022-10-05T08:42:11.230Z,20.50
2022-10-05T08:44:38.018Z,20.50
2022-10-05T08:47:21.531Z,20.50
2022-10-05T08:49:54.184Z,20.60
2022-10-05T08:52:24.164Z,20.60
2022-10-05T08:54:50.832Z,20.60
2022-10-05T08:57:23.712Z,20.70
2022-10-05T08:59:53.416Z,20.70
2022-10-05T09:02:28.153Z,20.70
2022-10-05T09:05:03.857Z,20.70
2022-10-05T09:07:56.710Z,20.60
2022-10-05T09:10:42.021Z,20.60
2022-10-05T09:13:27.407Z,20.60
2022-10-05T09:16:16.900Z,20.60
2022-10-05T09:18:59.757Z,20.60
2022-10-05T09:21:26.443Z,20.60
2022-10-05T09:24:04.907Z,20.70
2022-10-05T09:26:40.465Z,20.70
2022-10-05T09:29:25.857Z,20.70
2022-10-05T09:31:55.479Z,20.70
2022-10-05T09:34:25.962Z,20.70
2022-10-05T09:37:07.788Z,20.70
2022-10-05T09:39:47.753Z,20.60
2022-10-05T09:42:14.423Z,20.60
2022-10-05T09:44:56.941Z,20.60
2022-10-05T09:47:45.058Z,20.50
2022-10-05T09:50:19.487Z,20.50
2022-10-05T09:53:06.541Z,20.50
2022-10-05T09:55:49.558Z,20.40
2022-10-05T09:58:28.359Z,20.40
2022-10-05T10:01:09.657Z,20.40
2022-10-05T10:04:01.260Z,20.30
2022-10-05T10:06:42.820Z,20.30
2022-10-05T10:09:21.533Z,20.30
2022-10-05T10:12:08.417Z,20.30
2022-10-05T10:14:40.928Z,20.30
2022-10-05T10:17:11.705Z,20.20
2022-10-05T10:19:56.693Z,20.20
2022-10-05T10:22:50.131Z,20.20
2022-10-05T10:25:43.887Z,20.20
2022-10-05T10:28:10.563Z,20.20
2022-10-05T10:30:52.282Z,20.20
2022-10-05T10:33:31.051Z,20.20
2022-10-05T10:36:04.397Z,20.20
2022-10-05T10:38:33.539Z,20.20
2022-10-05T10:41:13.107Z,20.20
2022-10-05T10:43:45.752Z,20.20
2022-10-05T10:46:20.630Z,20.20
2022-10-05T10:48:57.433Z,20.20
2022-10-05T10:51:24.327Z,20.20
2022-10-05T10:53:54.010Z,20.30
2022-10-05T10:56:20.696Z,20.20
2022-10-05T10:59:06.075Z,20.20
2022-10-05T11:01:34.581Z,20.20
2022-10-05T11:04:19.799Z,20.20
2022-10-05T11:07:06.766Z,20.20
2022-10-05T11:09:36.377Z,20.20
2022-10-05T11:12:03.027Z,20.20
2022-10-05T11:14:52.551Z,20.20
2022-10-05T11:17:25.180Z,20.20
2022-10-05T11:20:10.462Z,20.20
2022-10-05T11:22:55.996Z,20.20
2022-10-05T11:25:34.997Z,20.10
2022-10-05T11:28:13.875Z,20.10
2022-10-05T11:30:59.728Z,20.10
2022-10-05T11:33:26.402Z,20.10
2022-10-05T11:36:12.115Z,20.10
2022-10-05T11:39:08.278Z,20.10
2022-10-05T11:41:41.267Z,20.10
2022-10-05T11:44:26.712Z,20.10
2022-10-05T11:46:59.395Z,20.20
2022-10-05T11:49:32.010Z,20.20
2022-10-05T11:52:07.866Z,20.20
2022-10-05T11:54:58.536Z,20.30
2022-10-05T11:57:25.455Z,20.30
2022-10-05T12:00:02.095Z,20.30
2022-10-05T12:02:41.405Z,20.30
2022-10-05T12:05:29.153Z,20.30
2022-10-05T12:08:14.721Z,20.30
2022-10-05T12:11:07.024Z,20.30
2022-10-05T12:13:36.807Z,20.30
2022-10-05T12:16:22.598Z,20.30
2022-10-05T12:19:01.326Z,20.30
2022-10-05T12:21:28.033Z,20.30
2022-10-05T12:24:08.741Z,20.30
2022-10-05T12:26:44.663Z,20.40
2022-10-05T12:29:20.717Z,20.40
2022-10-05T12:31:47.406Z,20.40
2022-10-05T12:34:14.109Z,20.30
2022-10-05T12:37:03.506Z,20.40
2022-10-05T12:39:31.047Z,20.40
2022-10-05T12:42:04.263Z,20.40
2022-10-05T12:44:42.079Z,20.40
2022-10-05T12:47:27.367Z,20.40
2022-10-05T12:50:12.672Z,20.40
2022-10-05T12:52:49.389Z,20.40
2022-10-05T12:55:39.096Z,20.40
2022-10-05T12:58:05.783Z,20.40
2022-10-05T13:00:34.677Z,20.40
2022-10-05T13:03:24.665Z,20.40
2022-10-05T13:06:20.653Z,20.40
2022-10-05T13:08:51.224Z,20.40
2022-10-05T13:11:26.983Z,20.40
2022-10-05T13:14:12.337Z,20.40
2022-10-05T13:16:49.148Z,20.40
2022-10-05T13:19:30.244Z,20.40
2022-10-05T13:22:15.312Z,20.40
2022-10-05T13:25:00.790Z,20.40
2022-10-05T13:27:30.193Z,20.40
2022-10-05T13:30:16.549Z,20.40
2022-10-05T13:32:48.036Z,20.40
2022-10-05T13:35:23.596Z,20.40
2022-10-05T13:38:05.968Z,20.40
2022-10-05T13:40:39.109Z,20.40
2022-10-05T13:43:14.929Z,20.50
2022-10-05T13:45:44.387Z,20.40
2022-10-05T13:48:17.940Z,20.30
2022-10-05T13:50:48.249Z,20.30
2022-10-05T13:53:28.978Z,20.30
2022-10-05T13:55:55.625Z,20.30
2022-10-05T13:58:38.654Z,20.30
2022-10-05T14:01:08.581Z,20.40
2022-10-05T14:03:36.889Z,20.40
2022-10-05T14:06:13.915Z,20.40
2022-10-05T14:09:01.084Z,20.30
2022-10-05T14:11:32.323Z,20.40
2022-10-05T14:14:02.143Z,20.40
2022-10-05T14:16:28.878Z,20.50
2022-10-05T14:18:58.089Z,20.50
2022-10-05T14:21:26.030Z,20.50
2022-10-05T14:23:53.225Z,20.50
2022-10-05T14:26:25.863Z,20.50
2022-10-05T14:29:11.708Z,20.50
2022-10-05T14:31:46.734Z,20.60
2022-10-05T14:34:39.743Z,20.50
2022-10-05T14:37:18.778Z,20.60
2022-10-05T14:39:46.576Z,20.60
2022-10-05T14:42:15.137Z,20.60
2022-10-05T14:44:41.833Z,20.50
2022-10-05T14:47:17.093Z,20.50
2022-10-05T14:50:10.542Z,20.50
2022-10-05T14:52:38.629Z,20.50
2022-10-05T14:55:17.802Z,20.50
2022-10-05T14:57:53.727Z,20.60
2022-10-05T15:00:20.623Z,20.50
2022-10-05T15:02:47.953Z,20.50
2022-10-05T15:05:28.998Z,20.50
2022-10-05T15:07:57.425Z,20.50
2022-10-05T15:10:29.483Z,20.50
2022-10-05T15:12:58.748Z,20.50
2022-10-05T15:15:37.216Z,20.50
2022-10-05T15:18:15.825Z,20.50
2022-10-05T15:21:11.850Z,20.60
2022-10-05T15:23:47.177Z,20.60
2022-10-05T15:26:26.053Z,20.60
2022-10-05T15:29:06.932Z,20.60
2022-10-05T15:31:39.700Z,20.60
2022-10-05T15:34:26.988Z,20.50
2022-10-05T15:36:56.696Z,20.50
2022-10-05T15:39:29.557Z,20.50
2022-10-05T15:42:00.263Z,20.50
2022-10-05T15:44:47.235Z,20.50
2022-10-05T15:47:19.114Z,20.50
2022-10-05T15:49:50.573Z,20.50
2022-10-05T15:52:24.863Z,20.50
2022-10-05T15:55:06.875Z,20.40
2022-10-05T15:57:38.115Z,20.40
2022-10-05T16:00:11.225Z,20.40
2022-10-05T16:02:46.992Z,20.50
2022-10-05T16:05:20.046Z,20.50
2022-10-05T16:08:08.169Z,20.60
2022-10-05T16:10:38.899Z,20.60
2022-10-05T16:13:19.148Z,20.70
2022-10-05T16:15:48.645Z,20.60
2022-10-05T16:18:34.356Z,20.60
2022-10-05T16:21:14.055Z,20.60
2022-10-05T16:23:47.646Z,20.60
2022-10-05T16:26:32.565Z,20.70
2022-10-05T16:29:04.190Z,20.80
2022-10-05T16:31:37.378Z,20.90
2022-10-05T16:34:09.393Z,21.00
2022-10-05T16:36:52.211Z,21.10
2022-10-05T16:39:37.491Z,21.10
2022-10-05T16:42:05.431Z,21.20
2022-10-05T16:44:32.183Z,21.30
2022-10-05T16:47:06.825Z,21.40
2022-10-05T16:49:38.900Z,21.40
2022-10-05T16:52:10.831Z,21.50
2022-10-05T16:54:47.660Z,21.60
2022-10-05T16:57:29.910Z,21.50
2022-10-05T17:00:08.912Z,21.60
2022-10-05T17:02:54.257Z,21.60
2022-10-05T17:05:20.996Z,21.60
2022-10-05T17:08:08.276Z,21.60
2022-10-05T17:10:42.221Z,21.60
2022-10-05T17:13:16.365Z,21.60
2022-10-05T17:15:55.183Z,21.70
2022-10-05T17:18:48.937Z,21.70
2022-10-05T17:21:17.687Z,21.60
2022-10-05T17:23:56.427Z,21.70
2022-10-05T17:26:23.080Z,21.70
2022-10-05T17:29:00.391Z,21.70
2022-10-05T17:31:28.950Z,21.70
2022-10-05T17:34:14.458Z,21.70
2022-10-05T17:36:43.895Z,21.70
2022-10-05T17:39:13.571Z,21.70
2022-10-05T17:41:40.312Z,21.70
2022-10-05T17:44:07.045Z,21.70
2022-10-05T17:46:38.854Z,21.70
2022-10-05T17:49:13.810Z,21.70
2022-10-05T17:51:59.240Z,21.70
2022-10-05T17:54:48.167Z,21.70
2022-10-05T17:57:18.417Z,21.70
2022-10-05T17:59:55.604Z,21.60
2022-10-05T18:02:22.419Z,21.60
2022-10-05T18:04:50.583Z,21.60
2022-10-05T18:07:18.966Z,21.60
2022-10-05T18:09:56.260Z,21.60
2022-10-05T18:12:24.149Z,21.50
2022-10-05T18:14:56.238Z,21.50
2022-10-05T18:17:46.573Z,21.50
2022-10-05T18:20:14.286Z,21.50
2022-10-05T18:22:43.956Z,21.50
2022-10-05T18:25:22.187Z,21.50
2022-10-05T18:27:48.798Z,21.50
2022-10-05T18:30:20.883Z,21.50
2022-10-05T18:32:50.626Z,21.50
2022-10-05T18:35:23.320Z,21.50
2022-10-05T18:38:08.837Z,21.50
2022-10-05T18:40:44.813Z,21.50
2022-10-05T18:43:18.238Z,21.60
2022-10-05T18:46:05.514Z,21.50
2022-10-05T18:48:34.331Z,21.50
2022-10-05T18:51:04.180Z,21.50
2022-10-05T18:53:36.926Z,21.50
2022-10-05T18:56:08.375Z,21.50
2022-10-05T18:58:52.130Z,21.50
2022-10-05T19:01:22.720Z,21.50
2022-10-05T19:03:54.913Z,21.50
2022-10-05T19:06:35.508Z,21.50
2022-10-05T19:09:30.395Z,21.50
2022-10-05T19:12:15.433Z,21.50
2022-10-05T19:14:48.340Z,21.50
2022-10-05T19:17:26.054Z,21.50
2022-10-05T19:20:02.886Z,21.50
2022-10-05T19:22:29.559Z,21.50
2022-10-05T19:25:05.281Z,21.50
2022-10-05T19:28:10.541Z,21.50
2022-10-05T19:30:42.999Z,21.50
2022-10-05T19:33:12.457Z,21.50
2022-10-05T19:35:41.891Z,21.50
2022-10-05T19:38:31.750Z,21.50
2022-10-05T19:41:16.094Z,21.50
2022-10-05T19:43:51.519Z,21.40
2022-10-05T19:46:25.481Z,21.40
2022-10-05T19:48:52.863Z,21.40
2022-10-05T19:51:29.630Z,21.40
2022-10-05T19:54:16.535Z,21.40
2022-10-05T19:56:49.027Z,21.40
2022-10-05T19:59:20.039Z,21.40
2022-10-05T20:01:50.193Z,21.40
2022-10-05T20:04:35.523Z,21.40
2022-10-05T20:07:02.346Z,21.40
2022-10-05T20:09:29.401Z,21.40
2022-10-05T20:11:56.763Z,21.40
2022-10-05T20:14:31.157Z,21.60
2022-10-05T20:17:35.401Z,21.50
2022-10-05T20:20:23.359Z,21.50
2022-10-05T20:22:50.004Z,21.40
2022-10-05T20:25:19.735Z,21.30
2022-10-05T20:27:46.539Z,21.20
2022-10-05T20:30:20.681Z,21.10
2022-10-05T20:32:51.632Z,21.10
2022-10-05T20:35:19.128Z,21.00
2022-10-05T20:37:45.806Z,20.90
2022-10-05T20:40:12.849Z,21.00
2022-10-05T20:42:39.521Z,21.00
2022-10-05T20:45:06.517Z,21.00
2022-10-05T20:47:34.287Z,21.10
2022-10-05T20:50:05.432Z,21.10
2022-10-05T20:52:32.118Z,21.10
2022-10-05T20:54:58.866Z,21.10
2022-10-05T20:57:26.569Z,21.10
2022-10-05T20:59:53.266Z,21.10
2022-10-05T21:02:20.125Z,21.00
2022-10-05T21:04:49.824Z,20.90
2022-10-05T21:07:17.248Z,20.90
2022-10-05T21:09:44.630Z,20.90
2022-10-05T21:12:11.263Z,20.90
2022-10-05T21:14:38.051Z,20.90
2022-10-05T21:17:05.365Z,20.90
2022-10-05T21:19:38.102Z,20.90
2022-10-05T21:22:07.335Z,20.90
2022-10-05T21:24:35.512Z,20.80
2022-10-05T21:27:02.172Z,20.80
2022-10-05T21:29:29.028Z,20.80
2022-10-05T21:31:55.888Z,20.80
2022-10-05T21:34:22.684Z,20.80
2022-10-05T21:36:49.373Z,20.80
2022-10-05T21:39:16.151Z,20.80
2022-10-05T21:41:42.780Z,20.80
2022-10-05T21:44:09.427Z,20.80
2022-10-05T21:46:36.680Z,20.80
2022-10-05T21:49:03.601Z,20.80
2022-10-05T21:51:30.311Z,20.80
2022-10-05T21:54:01.624Z,20.80
2022-10-05T21:56:30.272Z,20.70
2022-10-05T21:58:57.248Z,20.80
2022-10-05T22:01:23.930Z,20.80
2022-10-05T22:03:50.708Z,20.70
2022-10-05T22:06:17.371Z,20.70
2022-10-05T22:08:43.997Z,20.70
2022-10-05T22:11:12.660Z,20.70
2022-10-05T22:13:50.098Z,20.70
2022-10-05T22:16:18.658Z,20.70
2022-10-05T22:18:45.583Z,20.70
2022-10-05T22:21:13.206Z,20.70
2022-10-05T22:23:40.563Z,20.70
2022-10-05T22:26:08.181Z,20.70
2022-10-05T22:28:35.095Z,20.70
2022-10-05T22:31:02.845Z,20.70
2022-10-05T22:33:29.713Z,20.70
2022-10-05T22:35:57.711Z,20.60
2022-10-05T22:38:24.977Z,20.60
2022-10-05T22:40:51.854Z,20.60
2022-10-05T22:43:18.499Z,20.70
2022-10-05T22:45:45.263Z,20.60
2022-10-05T22:48:12.176Z,20.60
2022-10-05T22:50:38.886Z,20.60
2022-10-05T22:53:05.619Z,20.60
2022-10-05T22:55:32.317Z,20.60
2022-10-05T22:57:59.011Z,20.60
2022-10-05T23:00:40.541Z,20.60
2022-10-05T23:03:12.852Z,20.60
2022-10-05T23:05:39.495Z,20.60
2022-10-05T23:08:06.147Z,20.60
2022-10-05T23:10:33.960Z,20.60
2022-10-05T23:13:01.796Z,20.60
2022-10-05T23:15:28.574Z,20.60
2022-10-05T23:17:56.174Z,20.60
2022-10-05T23:20:24.101Z,20.60
2022-10-05T23:22:50.800Z,20.50
2022-10-05T23:25:17.852Z,20.60
2022-10-05T23:27:44.741Z,20.50
2022-10-05T23:30:12.367Z,20.50
2022-10-05T23:32:40.315Z,20.60
2022-10-05T23:35:08.207Z,20.50
2022-10-05T23:37:42.366Z,20.60
2022-10-05T23:40:11.691Z,20.60
2022-10-05T23:42:39.717Z,20.60
2022-10-05T23:45:07.092Z,20.60
2022-10-05T23:47:33.820Z,20.60
2022-10-05T23:50:00.908Z,20.50
2022-10-05T23:52:27.632Z,20.60
2022-10-05T23:54:54.273Z,20.60
2022-10-05T23:57:21.078Z,20.70
2022-10-05T23:59:50.305Z,20.70
